createdAt,value
2023-04-09T00:01:09.409Z,23.50
2023-04-09T00:04:21.044Z,23.60
2023-04-09T00:07:31.931Z,23.80
2023-04-09T00:10:44.184Z,23.80
2023-04-09T00:13:55.827Z,23.70
2023-04-09T00:17:09.696Z,23.60
2023-04-09T00:20:20.705Z,23.50
2023-04-09T00:23:32.106Z,23.40
2023-04-09T00:26:42.845Z,23.40
2023-04-09T00:29:53.468Z,23.30
2023-04-09T00:33:02.399Z,23.30
2023-04-09T00:36:13.869Z,23.30
2023-04-09T00:39:24.449Z,23.30
2023-04-09T00:42:37.243Z,23.20
2023-04-09T00:45:48.480Z,23.20
2023-04-09T00:49:00.196Z,23.20
2023-04-09T00:52:10.949Z,23.10
2023-04-09T00:55:22.749Z,23.00
2023-04-09T00:58:34.639Z,23.00
2023-04-09T01:01:45.752Z,23.00
2023-04-09T01:04:55.631Z,23.00
2023-04-09T01:08:11.245Z,23.00
2023-04-09T01:11:24.996Z,22.90
2023-04-09T01:14:37.790Z,22.90
2023-04-09T01:17:50.621Z,22.90
2023-04-09T01:21:05.312Z,22.90
2023-04-09T01:24:21.742Z,22.90
2023-04-09T01:27:32.106Z,22.90
2023-04-09T01:30:43.264Z,22.90
2023-04-09T01:33:56.221Z,22.80
2023-04-09T01:37:08.206Z,22.70
2023-04-09T01:40:24.363Z,22.70
2023-04-09T01:43:34.443Z,22.70
2023-04-09T01:46:46.188Z,22.80
2023-04-09T01:49:57.087Z,22.70
2023-04-09T01:53:09.038Z,22.60
2023-04-09T01:56:17.143Z,22.70
2023-04-09T01:59:26.887Z,22.60
2023-04-09T02:02:39.310Z,22.60
2023-04-09T02:05:48.903Z,22.60
2023-04-09T02:09:00.375Z,22.60
2023-04-09T02:12:13.896Z,22.60
2023-04-09T02:15:23.091Z,22.60
2023-04-09T02:18:35.200Z,22.60
2023-04-09T02:21:46.785Z,22.50
2023-04-09T02:24:59.520Z,22.60
2023-04-09T02:28:10.478Z,22.50
2023-04-09T02:31:21.726Z,22.50
2023-04-09T02:34:34.957Z,22.50
2023-04-09T02:37:46.582Z,22.40
2023-04-09T02:40:59.902Z,22.50
2023-04-09T02:44:08.977Z,22.40
2023-04-09T02:47:18.100Z,22.40
2023-04-09T02:50:29.547Z,22.40
2023-04-09T02:53:42.560Z,22.40
2023-04-09T02:56:53.391Z,22.40
2023-04-09T03:00:03.885Z,22.30
2023-04-09T03:03:16.729Z,22.40
2023-04-09T03:06:27.401Z,22.30
2023-04-09T03:09:40.918Z,22.30
2023-04-09T03:12:50.205Z,22.30
2023-04-09T03:16:02.613Z,22.30
2023-04-09T03:19:14.551Z,22.30
2023-04-09T03:22:25.558Z,22.20
2023-04-09T03:25:37.580Z,22.20
2023-04-09T03:28:50.665Z,22.20
2023-04-09T03:32:01.316Z,22.20
2023-04-09T03:35:13.854Z,22.20
2023-04-09T03:38:25.878Z,22.10
2023-04-09T03:41:35.865Z,22.10
2023-04-09T03:44:46.854Z,22.10
2023-04-09T03:47:59.099Z,22.10
2023-04-09T03:51:11.924Z,22.10
2023-04-09T03:54:24.233Z,22.10
2023-04-09T03:57:34.112Z,22.10
2023-04-09T04:00:44.253Z,22.00
2023-04-09T04:03:57.784Z,22.00
2023-04-09T04:07:09.534Z,22.00
2023-04-09T04:10:20.029Z,22.00
2023-04-09T04:13:31.900Z,22.00
2023-04-09T04:16:43.650Z,22.00
2023-04-09T04:19:55.486Z,22.00
2023-04-09T04:23:06.320Z,22.00
2023-04-09T04:26:17.170Z,22.00
2023-04-09T04:29:28.700Z,21.90
2023-04-09T04:32:39.550Z,21.90
2023-04-09T04:35:51.406Z,21.90
2023-04-09T04:39:04.532Z,21.90
2023-04-09T04:42:16.745Z,21.90
2023-04-09T04:45:30.364Z,21.90
2023-04-09T04:48:42.129Z,21.90
2023-04-09T04:51:52.858Z,21.80
2023-04-09T04:55:02.504Z,21.80
2023-04-09T04:58:13.068Z,21.80
2023-04-09T05:01:23.810Z,21.80
2023-04-09T05:04:32.363Z,21.80
2023-04-09T05:07:45.841Z,21.80
2023-04-09T05:10:57.292Z,21.70
2023-04-09T05:14:08.305Z,21.80
2023-04-09T05:17:19.063Z,21.80
2023-04-09T05:20:29.330Z,21.70
2023-04-09T05:23:41.817Z,21.70
2023-04-09T05:26:53.564Z,21.70
2023-04-09T05:30:04.019Z,21.60
2023-04-09T05:33:15.590Z,21.70
2023-04-09T05:36:26.756Z,21.70
2023-04-09T05:39:39.428Z,21.60
2023-04-09T05:42:51.353Z,21.60
2023-04-09T05:45:59.493Z,21.60
2023-04-09T05:49:11.225Z,21.60
2023-04-09T05:52:22.072Z,21.50
2023-04-09T05:55:31.474Z,21.50
2023-04-09T05:58:41.261Z,21.50
2023-04-09T06:01:52.340Z,21.50
2023-04-09T06:05:03.880Z,21.50
2023-04-09T06:08:12.010Z,21.40
2023-04-09T06:11:21.949Z,21.50
2023-04-09T06:14:30.218Z,21.40
2023-04-09T06:17:40.579Z,21.40
2023-04-09T06:20:49.359Z,21.40
2023-04-09T06:23:58.680Z,21.50
2023-04-09T06:27:11.327Z,21.40
2023-04-09T06:30:20.974Z,21.40
2023-04-09T06:33:30.707Z,21.40
2023-04-09T06:36:42.151Z,21.40
2023-04-09T06:40:00.987Z,21.30
2023-04-09T06:43:07.128Z,21.40
2023-04-09T06:46:19.946Z,21.30
2023-04-09T06:49:33.750Z,21.30
2023-04-09T06:52:44.003Z,21.30
2023-04-09T06:55:56.650Z,21.30
2023-04-09T06:59:04.644Z,21.30
2023-04-09T07:02:17.572Z,21.30
2023-04-09T07:05:30.696Z,21.20
2023-04-09T07:08:40.262Z,21.20
2023-04-09T07:11:51.085Z,21.20
2023-04-09T07:15:03.332Z,21.20
2023-04-09T07:18:15.102Z,21.30
2023-04-09T07:21:25.730Z,21.50
2023-04-09T07:24:35.735Z,21.70
2023-04-09T07:27:47.383Z,21.80
2023-04-09T07:30:58.172Z,21.80
2023-04-09T07:34:09.695Z,21.70
2023-04-09T07:37:22.238Z,21.60
2023-04-09T07:40:33.018Z,21.50
2023-04-09T07:43:43.647Z,21.40
2023-04-09T07:46:53.537Z,21.40
2023-04-09T07:50:06.360Z,21.40
2023-04-09T07:53:15.750Z,21.40
2023-04-09T07:56:25.542Z,21.40
2023-04-09T07:59:34.649Z,21.30
2023-04-09T08:02:46.481Z,21.30
2023-04-09T08:05:58.726Z,21.30
2023-04-09T08:09:11.735Z,21.20
2023-04-09T08:12:23.183Z,21.20
2023-04-09T08:15:33.926Z,21.40
2023-04-09T08:18:45.546Z,21.50
2023-04-09T08:21:57.896Z,21.70
2023-04-09T08:25:05.444Z,21.70
2023-04-09T08:28:16.930Z,21.70
2023-04-09T08:31:26.379Z,21.60
2023-04-09T08:34:37.068Z,21.50
2023-04-09T08:37:48.812Z,21.40
2023-04-09T08:40:59.748Z,21.40
2023-04-09T08:44:09.977Z,21.40
2023-04-09T08:47:20.776Z,21.40
2023-04-09T08:50:30.113Z,21.40
2023-04-09T08:53:44.512Z,21.30
2023-04-09T08:56:55.026Z,21.30
2023-04-09T09:00:07.551Z,21.30
2023-04-09T09:03:18.296Z,21.40
2023-04-09T09:06:30.397Z,21.60
2023-04-09T09:09:40.667Z,21.70
2023-04-09T09:12:51.544Z,21.70
2023-04-09T09:16:06.127Z,21.60
2023-04-09T09:19:15.800Z,21.50
2023-04-09T09:22:25.579Z,21.40
2023-04-09T09:25:36.244Z,21.30
2023-04-09T09:28:48.679Z,21.30
2023-04-09T09:31:59.113Z,21.30
2023-04-09T09:35:12.868Z,21.40
2023-04-09T09:38:24.020Z,21.60
2023-04-09T09:41:33.843Z,21.70
2023-04-09T09:44:46.263Z,21.80
2023-04-09T09:47:58.606Z,21.70
2023-04-09T09:51:13.063Z,21.60
2023-04-09T09:54:24.138Z,21.40
2023-04-09T09:57:35.768Z,21.40
2023-04-09T10:00:48.803Z,21.30
2023-04-09T10:04:02.126Z,21.30
2023-04-09T10:07:14.236Z,21.40
2023-04-09T10:10:25.677Z,21.60
2023-04-09T10:13:40.376Z,21.70
2023-04-09T10:16:52.228Z,21.80
2023-04-09T10:20:08.057Z,21.90
2023-04-09T10:23:19.067Z,22.00
2023-04-09T10:26:32.134Z,22.10
2023-04-09T10:29:44.679Z,22.30
2023-04-09T10:32:53.892Z,22.40
2023-04-09T10:36:11.342Z,22.50
2023-04-09T10:39:22.376Z,22.70
2023-04-09T10:42:35.798Z,22.80
2023-04-09T10:45:44.657Z,22.90
2023-04-09T10:48:54.412Z,23.00
2023-04-09T10:52:11.374Z,23.10
2023-04-09T10:55:42.762Z,23.20
2023-04-09T10:58:52.657Z,23.20
2023-04-09T11:02:03.841Z,23.10
2023-04-09T11:08:40.344Z,22.80
2023-04-09T11:11:53.111Z,22.70
2023-04-09T11:15:03.828Z,22.90
2023-04-09T11:18:15.653Z,23.00
2023-04-09T11:21:28.466Z,23.20
2023-04-09T11:24:46.105Z,23.30
2023-04-09T11:27:57.073Z,23.40
2023-04-09T11:31:11.850Z,23.40
2023-04-09T11:34:22.541Z,23.30
2023-04-09T11:37:31.597Z,23.20
2023-04-09T11:40:44.778Z,23.10
2023-04-09T11:43:55.919Z,23.00
2023-04-09T11:47:07.326Z,23.00
2023-04-09T11:50:16.113Z,23.10
2023-04-09T11:53:29.904Z,23.20
2023-04-09T11:56:40.073Z,23.40
2023-04-09T11:59:49.981Z,23.50
2023-04-09T12:03:05.379Z,23.40
2023-04-09T12:06:18.107Z,23.40
2023-04-09T12:09:31.403Z,23.40
2023-04-09T12:12:43.728Z,23.30
2023-04-09T12:15:59.088Z,23.30
2023-04-09T12:19:10.385Z,23.40
2023-04-09T12:22:23.763Z,23.50
2023-04-09T12:25:31.338Z,23.60
2023-04-09T12:28:41.062Z,23.70
2023-04-09T12:31:51.667Z,23.70
2023-04-09T12:35:00.018Z,23.70
2023-04-09T12:38:10.279Z,23.70
2023-04-09T12:41:24.563Z,23.60
2023-04-09T12:44:37.752Z,23.50
2023-04-09T12:47:48.328Z,23.40
2023-04-09T12:51:00.301Z,23.40
2023-04-09T12:54:10.156Z,23.50
2023-04-09T12:57:20.778Z,23.60
2023-04-09T13:00:33.985Z,23.80
2023-04-09T13:03:44.038Z,23.90
2023-04-09T13:06:56.638Z,24.00
2023-04-09T13:10:06.722Z,24.10
2023-04-09T13:13:16.507Z,24.00
2023-04-09T13:16:26.643Z,24.00
2023-04-09T13:19:35.859Z,23.90
2023-04-09T13:22:50.094Z,23.90
2023-04-09T13:25:59.383Z,23.90
2023-04-09T13:29:13.584Z,23.90
2023-04-09T13:32:25.242Z,24.00
2023-04-09T13:35:36.490Z,24.10
2023-04-09T13:38:47.090Z,24.20
2023-04-09T13:41:58.298Z,24.40
2023-04-09T13:45:12.454Z,24.50
2023-04-09T13:48:23.964Z,24.60
2023-04-09T13:51:35.627Z,24.50
2023-04-09T13:54:43.763Z,24.50
2023-04-09T13:57:53.562Z,24.50
2023-04-09T14:01:06.185Z,24.40
2023-04-09T14:04:18.223Z,24.40
2023-04-09T14:07:29.465Z,24.40
2023-04-09T14:10:40.154Z,24.40
2023-04-09T14:13:52.146Z,24.40
2023-04-09T14:17:03.340Z,24.40
2023-04-09T14:20:17.919Z,24.50
2023-04-09T14:23:27.764Z,24.50
2023-04-09T14:26:39.840Z,24.50
2023-04-09T14:29:51.227Z,24.50
2023-04-09T14:33:01.526Z,24.50
2023-04-09T14:36:12.843Z,24.60
2023-04-09T14:39:23.854Z,24.60
2023-04-09T14:42:35.228Z,24.60
2023-04-09T14:45:43.845Z,24.60
2023-04-09T14:48:52.638Z,24.70
2023-04-09T14:52:04.922Z,24.70
2023-04-09T14:55:19.498Z,24.70
2023-04-09T14:58:28.449Z,24.80
2023-04-09T15:01:39.443Z,24.90
2023-04-09T15:04:50.449Z,25.10
2023-04-09T15:08:00.518Z,25.20
2023-04-09T15:11:15.324Z,25.20
2023-04-09T15:14:28.406Z,25.10
2023-04-09T15:17:38.283Z,25.00
2023-04-09T15:20:46.492Z,25.00
2023-04-09T15:24:01.290Z,25.00
2023-04-09T15:27:11.275Z,24.90
2023-04-09T15:30:22.092Z,24.90
2023-04-09T15:33:31.729Z,25.00
2023-04-09T15:36:41.017Z,25.00
2023-04-09T15:39:51.961Z,25.00
2023-04-09T15:43:03.732Z,24.90
2023-04-09T15:46:18.296Z,24.90
2023-04-09T15:49:30.469Z,25.00
2023-04-09T15:52:43.085Z,25.00
2023-04-09T15:55:54.079Z,25.00
2023-04-09T15:59:06.421Z,25.00
2023-04-09T16:02:18.852Z,25.00
2023-04-09T16:05:33.842Z,25.00
2023-04-09T16:08:45.398Z,25.00
2023-04-09T16:11:56.911Z,25.00
2023-04-09T16:15:07.841Z,25.00
2023-04-09T16:18:20.101Z,25.00
2023-04-09T16:21:29.619Z,25.10
2023-04-09T16:24:39.311Z,25.00
2023-04-09T16:27:50.412Z,25.00
2023-04-09T16:31:03.382Z,25.00
2023-04-09T16:34:13.446Z,25.00
2023-04-09T16:37:26.118Z,25.00
2023-04-09T16:40:35.108Z,25.00
2023-04-09T16:43:43.942Z,25.00
2023-04-09T16:46:54.311Z,25.00
2023-04-09T16:50:06.661Z,25.00
2023-04-09T16:53:18.996Z,25.00
2023-04-09T16:56:31.779Z,24.90
2023-04-09T16:59:43.086Z,24.90
2023-04-09T17:02:53.227Z,24.90
2023-04-09T17:06:04.363Z,24.90
2023-04-09T17:09:17.020Z,24.90
2023-04-09T17:12:31.300Z,24.90
2023-04-09T17:15:42.230Z,24.80
2023-04-09T17:18:53.882Z,24.90
2023-04-09T17:22:04.691Z,25.00
2023-04-09T17:25:18.623Z,24.90
2023-04-09T17:28:30.525Z,24.90
2023-04-09T17:31:44.082Z,24.80
2023-04-09T17:34:57.150Z,24.80
2023-04-09T17:38:06.877Z,24.80
2023-04-09T17:41:19.415Z,24.80
2023-04-09T17:44:33.262Z,24.70
2023-04-09T17:47:44.348Z,24.70
2023-04-09T17:50:54.122Z,24.70
2023-04-09T17:54:07.008Z,24.70
2023-04-09T17:57:19.156Z,24.70
2023-04-09T18:00:30.463Z,24.70
2023-04-09T18:03:43.786Z,24.70
2023-04-09T18:06:54.513Z,24.70
2023-04-09T18:10:04.617Z,24.70
2023-04-09T18:13:15.168Z,24.60
2023-04-09T18:16:28.035Z,24.50
2023-04-09T18:19:41.283Z,24.50
2023-04-09T18:22:51.151Z,24.50
2023-04-09T18:26:03.554Z,24.50
2023-04-09T18:29:13.338Z,24.50
2023-04-09T18:32:25.454Z,24.40
2023-04-09T18:35:34.659Z,24.50
2023-04-09T18:38:47.236Z,24.50
2023-04-09T18:41:58.683Z,24.40
2023-04-09T18:45:14.175Z,24.40
2023-04-09T18:48:24.869Z,24.40
2023-04-09T18:51:36.674Z,24.40
2023-04-09T18:54:46.098Z,24.40
2023-04-09T18:57:55.910Z,24.40
2023-04-09T19:01:14.456Z,24.50
2023-04-09T19:04:28.778Z,24.60
2023-04-09T19:07:39.185Z,24.70
2023-04-09T19:10:51.796Z,24.70
2023-04-09T19:14:04.310Z,24.60
2023-04-09T19:17:14.366Z,24.60
2023-04-09T19:20:22.227Z,24.50
2023-04-09T19:23:35.486Z,24.40
2023-04-09T19:26:43.882Z,24.40
2023-04-09T19:29:55.767Z,24.40
2023-04-09T19:33:07.016Z,24.40
2023-04-09T19:36:15.349Z,24.30
2023-04-09T19:39:26.305Z,24.30
2023-04-09T19:42:38.233Z,24.30
2023-04-09T19:45:50.985Z,24.30
2023-04-09T19:49:02.741Z,24.20
2023-04-09T19:52:15.486Z,24.20
2023-04-09T19:55:27.407Z,24.20
2023-04-09T19:58:36.796Z,24.20
2023-04-09T20:01:45.793Z,24.20
2023-04-09T20:04:55.052Z,24.20
2023-04-09T20:08:04.854Z,24.20
2023-04-09T20:11:20.047Z,24.10
2023-04-09T20:14:29.431Z,24.10
2023-04-09T20:17:43.890Z,24.10
2023-04-09T20:20:56.864Z,24.00
2023-04-09T20:24:09.046Z,24.00
2023-04-09T20:27:20.737Z,24.00
2023-04-09T20:30:33.991Z,24.00
2023-04-09T20:33:42.893Z,24.00
2023-04-09T20:36:55.443Z,24.00
2023-04-09T20:40:05.846Z,24.00
2023-04-09T20:43:19.047Z,23.90
2023-04-09T20:46:29.862Z,23.90
2023-04-09T20:49:39.595Z,23.90
2023-04-09T20:52:51.940Z,23.90
2023-04-09T20:56:04.282Z,23.80
2023-04-09T20:59:15.738Z,23.80
2023-04-09T21:02:29.043Z,23.80
2023-04-09T21:05:43.791Z,23.80
2023-04-09T21:08:53.263Z,23.80
2023-04-09T21:12:04.101Z,23.80
2023-04-09T21:15:15.503Z,23.80
2023-04-09T21:18:23.601Z,23.80
2023-04-09T21:21:35.079Z,23.80
2023-04-09T21:24:47.882Z,23.80
2023-04-09T21:27:58.300Z,23.80
2023-04-09T21:31:13.259Z,23.70
2023-04-09T21:34:25.230Z,23.70
2023-04-09T21:37:36.165Z,23.70
2023-04-09T21:40:47.057Z,23.70
2023-04-09T21:44:02.068Z,23.70
2023-04-09T21:47:15.450Z,23.70
2023-04-09T21:50:25.885Z,23.60
2023-04-09T21:53:34.692Z,23.60
2023-04-09T21:56:44.480Z,23.60
2023-04-09T21:59:54.459Z,23.60
2023-04-09T22:03:06.924Z,23.60
2023-04-09T22:06:18.704Z,23.60
2023-04-09T22:09:29.412Z,23.60
2023-04-09T22:12:40.886Z,23.60
2023-04-09T22:15:50.893Z,23.60
2023-04-09T22:19:01.465Z,23.50
2023-04-09T22:22:13.944Z,23.40
2023-04-09T22:25:24.395Z,23.50
2023-04-09T22:28:35.481Z,23.50
2023-04-09T22:31:48.146Z,23.50
2023-04-09T22:34:59.663Z,23.40
2023-04-09T22:38:11.269Z,23.40
2023-04-09T22:41:21.794Z,23.40
2023-04-09T22:44:33.531Z,23.50
2023-04-09T22:47:45.118Z,23.40
2023-04-09T22:50:57.790Z,23.40
2023-04-09T22:54:06.376Z,23.40
2023-04-09T22:57:18.740Z,23.40
2023-04-09T23:00:30.747Z,23.40
2023-04-09T23:03:41.489Z,23.40
2023-04-09T23:06:51.303Z,23.40
2023-04-09T23:10:03.785Z,23.40
2023-04-09T23:13:14.589Z,23.30
2023-04-09T23:16:24.350Z,23.40
2023-04-09T23:19:36.425Z,23.30
2023-04-09T23:22:46.732Z,23.30
2023-04-09T23:25:56.054Z,23.30
2023-04-09T23:29:08.650Z,23.30
2023-04-09T23:32:19.697Z,23.30
2023-04-09T23:35:29.686Z,23.30
2023-04-09T23:38:40.922Z,23.30
2023-04-09T23:41:50.010Z,23.30
2023-04-09T23:45:04.459Z,23.30
2023-04-09T23:48:13.030Z,23.20
2023-04-09T23:51:23.691Z,23.20
2023-04-09T23:54:36.511Z,23.20
2023-04-09T23:57:46.494Z,23.20
